sensor_id;sensor_type;location;lat;lon;timestamp;temperature;humidity
29363;DHT22;16349;53.672;10.014;2023-02-03T00:01:37;5.40;99.90
29363;DHT22;16349;53.672;10.014;2023-02-03T00:04:04;5.40;99.90
29363;DHT22;16349;53.672;10.014;2023-02-03T00:06:32;5.50;99.90
29363;DHT22;16349;53.672;10.014;2023-02-03T00:08:59;5.60;99.90
29363;DHT22;16349;53.672;10.014;2023-02-03T00:11:28;5.60;99.90
29363;DHT22;16349;53.672;10.014;2023-02-03T00:13:55;5.70;99.90
29363;DHT22;16349;53.672;10.014;2023-02-03T00:16:22;5.80;99.90
29363;DHT22;16349;53.672;10.014;2023-02-03T00:18:49;5.80;99.90
29363;DHT22;16349;53.672;10.014;2023-02-03T00:21:16;5.80;99.90
29363;DHT22;16349;53.672;10.014;2023-02-03T00:23:44;5.80;99.90
29363;DHT22;16349;53.672;10.014;2023-02-03T00:26:13;5.80;99.90
29363;DHT22;16349;53.672;10.014;2023-02-03T00:28:41;5.90;99.90
29363;DHT22;16349;53.672;10.014;2023-02-03T00:31:14;5.90;99.90
29363;DHT22;16349;53.672;10.014;2023-02-03T00:34:04;6.00;99.90
29363;DHT22;16349;53.672;10.014;2023-02-03T00:36:31;6.10;99.90
29363;DHT22;16349;53.672;10.014;2023-02-03T00:39:00;6.10;99.90
29363;DHT22;16349;53.672;10.014;2023-02-03T00:41:28;6.20;99.90
29363;DHT22;16349;53.672;10.014;2023-02-03T00:43:55;6.20;99.90
29363;DHT22;16349;53.672;10.014;2023-02-03T00:46:23;6.30;99.90
29363;DHT22;16349;53.672;10.014;2023-02-03T00:49:11;6.30;99.90
29363;DHT22;16349;53.672;10.014;2023-02-03T00:51:38;6.40;99.90
29363;DHT22;16349;53.672;10.014;2023-02-03T00:54:06;6.50;99.90
29363;DHT22;16349;53.672;10.014;2023-02-03T00:56:33;6.60;99.90
29363;DHT22;16349;53.672;10.014;2023-02-03T00:59:01;6.70;99.90
29363;DHT22;16349;53.672;10.014;2023-02-03T01:01:30;6.80;99.90
29363;DHT22;16349;53.672;10.014;2023-02-03T01:03:56;6.80;99.90
29363;DHT22;16349;53.672;10.014;2023-02-03T01:06:24;6.90;99.90
29363;DHT22;16349;53.672;10.014;2023-02-03T01:08:53;6.90;99.90
29363;DHT22;16349;53.672;10.014;2023-02-03T01:11:23;6.90;99.90
29363;DHT22;16349;53.672;10.014;2023-02-03T01:13:52;7.00;99.90
29363;DHT22;16349;53.672;10.014;2023-02-03T01:16:22;7.10;99.90
29363;DHT22;16349;53.672;10.014;2023-02-03T01:18:50;7.10;99.90
29363;DHT22;16349;53.672;10.014;2023-02-03T01:21:19;7.20;99.90
29363;DHT22;16349;53.672;10.014;2023-02-03T01:23:46;7.20;99.90
29363;DHT22;16349;53.672;10.014;2023-02-03T01:26:16;7.30;99.90
29363;DHT22;16349;53.672;10.014;2023-02-03T01:28:51;7.30;99.90
29363;DHT22;16349;53.672;10.014;2023-02-03T01:31:21;7.40;99.90
29363;DHT22;16349;53.672;10.014;2023-02-03T01:33:47;7.40;99.90
29363;DHT22;16349;53.672;10.014;2023-02-03T01:36:16;7.40;99.90
29363;DHT22;16349;53.672;10.014;2023-02-03T01:38:43;7.40;99.90
29363;DHT22;16349;53.672;10.014;2023-02-03T01:41:13;7.40;99.90
29363;DHT22;16349;53.672;10.014;2023-02-03T01:43:43;7.40;99.90
29363;DHT22;16349;53.672;10.014;2023-02-03T01:46:21;7.40;99.90
29363;DHT22;16349;53.672;10.014;2023-02-03T01:48:51;7.50;99.90
29363;DHT22;16349;53.672;10.014;2023-02-03T01:51:19;7.50;99.90
29363;DHT22;16349;53.672;10.014;2023-02-03T01:53:47;7.50;99.90
29363;DHT22;16349;53.672;10.014;2023-02-03T01:56:15;7.50;99.90
29363;DHT22;16349;53.672;10.014;2023-02-03T01:58:44;7.50;99.90
29363;DHT22;16349;53.672;10.014;2023-02-03T02:01:12;7.50;99.90
29363;DHT22;16349;53.672;10.014;2023-02-03T02:03:44;7.50;99.90
29363;DHT22;16349;53.672;10.014;2023-02-03T02:06:13;7.50;99.90
29363;DHT22;16349;53.672;10.014;2023-02-03T02:08:41;7.60;99.90
29363;DHT22;16349;53.672;10.014;2023-02-03T02:11:10;7.60;99.90
29363;DHT22;16349;53.672;10.014;2023-02-03T02:13:40;7.60;99.90
29363;DHT22;16349;53.672;10.014;2023-02-03T02:16:11;7.60;99.90
29363;DHT22;16349;53.672;10.014;2023-02-03T02:21:57;7.60;99.90
29363;DHT22;16349;53.672;10.014;2023-02-03T02:24:47;7.60;99.90
29363;DHT22;16349;53.672;10.014;2023-02-03T02:27:50;7.60;99.90
29363;DHT22;16349;53.672;10.014;2023-02-03T02:30:37;7.60;99.90
29363;DHT22;16349;53.672;10.014;2023-02-03T02:33:12;7.60;99.90
29363;DHT22;16349;53.672;10.014;2023-02-03T02:35:48;7.60;99.90
29363;DHT22;16349;53.672;10.014;2023-02-03T02:38:26;7.60;99.90
29363;DHT22;16349;53.672;10.014;2023-02-03T02:41:01;7.60;99.90
29363;DHT22;16349;53.672;10.014;2023-02-03T02:43:35;7.60;99.90
29363;DHT22;16349;53.672;10.014;2023-02-03T02:46:09;7.60;99.90
29363;DHT22;16349;53.672;10.014;2023-02-03T02:48:42;7.60;99.90
29363;DHT22;16349;53.672;10.014;2023-02-03T02:51:12;7.60;99.90
29363;DHT22;16349;53.672;10.014;2023-02-03T02:53:44;7.60;99.90
29363;DHT22;16349;53.672;10.014;2023-02-03T02:56:13;7.60;99.90
29363;DHT22;16349;53.672;10.014;2023-02-03T02:58:43;7.60;99.90
29363;DHT22;16349;53.672;10.014;2023-02-03T03:01:11;7.70;99.90
29363;DHT22;16349;53.672;10.014;2023-02-03T03:03:42;7.60;99.90
29363;DHT22;16349;53.672;10.014;2023-02-03T03:06:13;7.60;99.90
29363;DHT22;16349;53.672;10.014;2023-02-03T03:08:44;7.70;99.90
29363;DHT22;16349;53.672;10.014;2023-02-03T03:11:12;7.70;99.90
29363;DHT22;16349;53.672;10.014;2023-02-03T03:13:42;7.70;99.90
29363;DHT22;16349;53.672;10.014;2023-02-03T03:16:12;7.70;99.90
29363;DHT22;16349;53.672;10.014;2023-02-03T03:18:44;7.70;99.90
29363;DHT22;16349;53.672;10.014;2023-02-03T03:21:17;7.80;99.90
29363;DHT22;16349;53.672;10.014;2023-02-03T03:23:47;7.80;99.90
29363;DHT22;16349;53.672;10.014;2023-02-03T03:26:19;7.80;99.90
29363;DHT22;16349;53.672;10.014;2023-02-03T03:28:51;7.80;99.90
29363;DHT22;16349;53.672;10.014;2023-02-03T03:31:20;7.80;99.90
29363;DHT22;16349;53.672;10.014;2023-02-03T03:33:48;7.80;99.90
29363;DHT22;16349;53.672;10.014;2023-02-03T03:36:23;7.80;99.90
29363;DHT22;16349;53.672;10.014;2023-02-03T03:38:55;7.80;99.90
29363;DHT22;16349;53.672;10.014;2023-02-03T03:41:29;7.80;99.90
29363;DHT22;16349;53.672;10.014;2023-02-03T03:44:01;7.80;99.90
29363;DHT22;16349;53.672;10.014;2023-02-03T03:46:34;7.80;99.90
29363;DHT22;16349;53.672;10.014;2023-02-03T03:49:09;7.80;99.90
29363;DHT22;16349;53.672;10.014;2023-02-03T03:51:41;7.80;99.90
29363;DHT22;16349;53.672;10.014;2023-02-03T03:54:12;7.80;99.90
29363;DHT22;16349;53.672;10.014;2023-02-03T03:56:42;7.80;99.90
29363;DHT22;16349;53.672;10.014;2023-02-03T03:59:13;7.80;99.90
29363;DHT22;16349;53.672;10.014;2023-02-03T04:01:42;7.80;99.90
29363;DHT22;16349;53.672;10.014;2023-02-03T04:04:12;7.80;99.90
29363;DHT22;16349;53.672;10.014;2023-02-03T04:06:41;7.80;99.90
29363;DHT22;16349;53.672;10.014;2023-02-03T04:09:07;7.80;99.90
29363;DHT22;16349;53.672;10.014;2023-02-03T04:11:35;7.80;99.90
29363;DHT22;16349;53.672;10.014;2023-02-03T04:14:33;7.80;99.90
29363;DHT22;16349;53.672;10.014;2023-02-03T04:17:02;7.80;99.90
29363;DHT22;16349;53.672;10.014;2023-02-03T04:19:30;7.70;99.90
29363;DHT22;16349;53.672;10.014;2023-02-03T04:21:57;7.70;99.90
29363;DHT22;16349;53.672;10.014;2023-02-03T04:24:23;7.70;99.90
29363;DHT22;16349;53.672;10.014;2023-02-03T04:26:51;7.70;99.90
29363;DHT22;16349;53.672;10.014;2023-02-03T04:29:18;7.60;99.90
29363;DHT22;16349;53.672;10.014;2023-02-03T04:31:44;7.70;99.90
29363;DHT22;16349;53.672;10.014;2023-02-03T04:34:11;7.70;99.90
29363;DHT22;16349;53.672;10.014;2023-02-03T04:36:39;7.70;99.90
29363;DHT22;16349;53.672;10.014;2023-02-03T04:39:06;7.60;99.90
29363;DHT22;16349;53.672;10.014;2023-02-03T04:41:32;7.70;99.90
29363;DHT22;16349;53.672;10.014;2023-02-03T04:43:59;7.70;99.90
29363;DHT22;16349;53.672;10.014;2023-02-03T04:46:26;7.70;99.90
29363;DHT22;16349;53.672;10.014;2023-02-03T04:48:53;7.70;99.90
29363;DHT22;16349;53.672;10.014;2023-02-03T04:51:20;7.70;99.90
29363;DHT22;16349;53.672;10.014;2023-02-03T04:53:48;7.70;99.90
29363;DHT22;16349;53.672;10.014;2023-02-03T04:56:15;7.70;99.90
29363;DHT22;16349;53.672;10.014;2023-02-03T04:58:42;7.70;99.90
29363;DHT22;16349;53.672;10.014;2023-02-03T05:01:09;7.70;99.90
29363;DHT22;16349;53.672;10.014;2023-02-03T05:03:36;7.60;99.90
29363;DHT22;16349;53.672;10.014;2023-02-03T05:06:04;7.70;99.90
29363;DHT22;16349;53.672;10.014;2023-02-03T05:08:31;7.70;99.90
29363;DHT22;16349;53.672;10.014;2023-02-03T05:10:59;7.70;99.90
29363;DHT22;16349;53.672;10.014;2023-02-03T05:13:26;7.60;99.90
29363;DHT22;16349;53.672;10.014;2023-02-03T05:15:53;7.60;99.90
29363;DHT22;16349;53.672;10.014;2023-02-03T05:18:19;7.60;99.90
29363;DHT22;16349;53.672;10.014;2023-02-03T05:20:46;7.60;99.90
29363;DHT22;16349;53.672;10.014;2023-02-03T05:23:13;7.60;99.90
29363;DHT22;16349;53.672;10.014;2023-02-03T05:25:42;7.60;99.90
29363;DHT22;16349;53.672;10.014;2023-02-03T05:28:10;7.60;99.90
29363;DHT22;16349;53.672;10.014;2023-02-03T05:30:37;7.60;99.90
29363;DHT22;16349;53.672;10.014;2023-02-03T05:33:04;7.60;99.90
29363;DHT22;16349;53.672;10.014;2023-02-03T05:35:31;7.60;99.90
29363;DHT22;16349;53.672;10.014;2023-02-03T05:37:57;7.60;99.90
29363;DHT22;16349;53.672;10.014;2023-02-03T05:40:47;7.60;99.90
29363;DHT22;16349;53.672;10.014;2023-02-03T05:43:32;7.60;99.90
29363;DHT22;16349;53.672;10.014;2023-02-03T05:45:59;7.60;99.90
29363;DHT22;16349;53.672;10.014;2023-02-03T05:48:26;7.60;99.90
29363;DHT22;16349;53.672;10.014;2023-02-03T05:50:54;7.70;99.90
29363;DHT22;16349;53.672;10.014;2023-02-03T05:53:21;7.70;99.90
29363;DHT22;16349;53.672;10.014;2023-02-03T05:55:48;7.60;99.90
29363;DHT22;16349;53.672;10.014;2023-02-03T05:58:15;7.60;99.90
29363;DHT22;16349;53.672;10.014;2023-02-03T06:00:43;7.70;99.90
29363;DHT22;16349;53.672;10.014;2023-02-03T06:03:10;7.60;99.90
29363;DHT22;16349;53.672;10.014;2023-02-03T06:05:37;7.60;99.90
29363;DHT22;16349;53.672;10.014;2023-02-03T06:08:06;7.70;99.90
29363;DHT22;16349;53.672;10.014;2023-02-03T06:10:33;7.70;99.90
29363;DHT22;16349;53.672;10.014;2023-02-03T06:13:07;7.70;99.90
29363;DHT22;16349;53.672;10.014;2023-02-03T06:15:35;7.70;99.90
29363;DHT22;16349;53.672;10.014;2023-02-03T06:18:04;7.70;99.90
29363;DHT22;16349;53.672;10.014;2023-02-03T06:20:30;7.70;99.90
29363;DHT22;16349;53.672;10.014;2023-02-03T06:22:58;7.70;99.90
29363;DHT22;16349;53.672;10.014;2023-02-03T06:25:25;7.70;99.90
29363;DHT22;16349;53.672;10.014;2023-02-03T06:27:52;7.70;99.90
29363;DHT22;16349;53.672;10.014;2023-02-03T06:30:19;7.70;99.90
29363;DHT22;16349;53.672;10.014;2023-02-03T06:32:48;7.70;99.90
29363;DHT22;16349;53.672;10.014;2023-02-03T06:35:17;7.80;99.90
29363;DHT22;16349;53.672;10.014;2023-02-03T06:37:44;7.80;99.90
29363;DHT22;16349;53.672;10.014;2023-02-03T06:40:11;7.70;99.90
29363;DHT22;16349;53.672;10.014;2023-02-03T06:42:38;7.80;99.90
29363;DHT22;16349;53.672;10.014;2023-02-03T06:45:27;7.80;99.90
29363;DHT22;16349;53.672;10.014;2023-02-03T06:47:54;7.80;99.90
29363;DHT22;16349;53.672;10.014;2023-02-03T06:50:22;7.80;99.90
29363;DHT22;16349;53.672;10.014;2023-02-03T06:52:49;7.80;99.90
29363;DHT22;16349;53.672;10.014;2023-02-03T06:55:16;7.80;99.90
29363;DHT22;16349;53.672;10.014;2023-02-03T06:57:45;7.90;99.90
29363;DHT22;16349;53.672;10.014;2023-02-03T07:00:14;7.90;99.90
29363;DHT22;16349;53.672;10.014;2023-02-03T07:02:41;7.90;99.90
29363;DHT22;16349;53.672;10.014;2023-02-03T07:05:09;7.90;99.90
29363;DHT22;16349;53.672;10.014;2023-02-03T07:07:37;8.00;99.90
29363;DHT22;16349;53.672;10.014;2023-02-03T07:10:05;8.00;99.90
29363;DHT22;16349;53.672;10.014;2023-02-03T07:12:32;8.10;99.90
29363;DHT22;16349;53.672;10.014;2023-02-03T07:14:58;8.10;99.90
29363;DHT22;16349;53.672;10.014;2023-02-03T07:17:26;8.10;99.90
29363;DHT22;16349;53.672;10.014;2023-02-03T07:19:53;8.10;99.90
29363;DHT22;16349;53.672;10.014;2023-02-03T07:22:19;8.20;99.90
29363;DHT22;16349;53.672;10.014;2023-02-03T07:24:47;8.20;99.90
29363;DHT22;16349;53.672;10.014;2023-02-03T07:27:15;8.20;99.90
29363;DHT22;16349;53.672;10.014;2023-02-03T07:29:42;8.10;99.90
29363;DHT22;16349;53.672;10.014;2023-02-03T07:32:09;8.20;99.90
29363;DHT22;16349;53.672;10.014;2023-02-03T07:34:35;8.10;99.90
29363;DHT22;16349;53.672;10.014;2023-02-03T07:37:02;8.20;99.90
29363;DHT22;16349;53.672;10.014;2023-02-03T07:39:29;8.20;99.90
29363;DHT22;16349;53.672;10.014;2023-02-03T07:41:57;8.20;99.90
29363;DHT22;16349;53.672;10.014;2023-02-03T07:44:26;8.20;99.90
29363;DHT22;16349;53.672;10.014;2023-02-03T07:46:53;8.20;99.90
29363;DHT22;16349;53.672;10.014;2023-02-03T07:49:20;8.30;99.90
29363;DHT22;16349;53.672;10.014;2023-02-03T07:51:46;8.30;99.90
29363;DHT22;16349;53.672;10.014;2023-02-03T07:54:14;8.20;99.90
29363;DHT22;16349;53.672;10.014;2023-02-03T07:56:41;8.30;99.90
29363;DHT22;16349;53.672;10.014;2023-02-03T07:59:09;8.30;99.90
29363;DHT22;16349;53.672;10.014;2023-02-03T08:01:36;8.30;99.90
29363;DHT22;16349;53.672;10.014;2023-02-03T08:04:03;8.30;99.90
29363;DHT22;16349;53.672;10.014;2023-02-03T08:06:30;8.10;99.90
29363;DHT22;16349;53.672;10.014;2023-02-03T08:08:58;7.80;99.90
29363;DHT22;16349;53.672;10.014;2023-02-03T08:11:25;7.60;99.90
29363;DHT22;16349;53.672;10.014;2023-02-03T08:13:52;7.30;99.90
29363;DHT22;16349;53.672;10.014;2023-02-03T08:16:40;7.20;99.90
29363;DHT22;16349;53.672;10.014;2023-02-03T08:19:09;7.30;99.90
29363;DHT22;16349;53.672;10.014;2023-02-03T08:21:36;7.40;99.90
29363;DHT22;16349;53.672;10.014;2023-02-03T08:24:03;7.50;99.90
29363;DHT22;16349;53.672;10.014;2023-02-03T08:26:30;7.70;99.90
29363;DHT22;16349;53.672;10.014;2023-02-03T08:28:56;7.80;99.90
29363;DHT22;16349;53.672;10.014;2023-02-03T08:31:23;7.90;99.90
29363;DHT22;16349;53.672;10.014;2023-02-03T08:33:51;7.90;99.90
29363;DHT22;16349;53.672;10.014;2023-02-03T08:36:18;8.00;99.90
29363;DHT22;16349;53.672;10.014;2023-02-03T08:38:45;8.00;99.90
29363;DHT22;16349;53.672;10.014;2023-02-03T08:41:14;8.00;99.90
29363;DHT22;16349;53.672;10.014;2023-02-03T08:43:42;8.00;99.90
29363;DHT22;16349;53.672;10.014;2023-02-03T08:46:10;8.10;99.90
29363;DHT22;16349;53.672;10.014;2023-02-03T08:48:38;8.00;99.90
29363;DHT22;16349;53.672;10.014;2023-02-03T08:51:11;8.10;99.90
29363;DHT22;16349;53.672;10.014;2023-02-03T08:53:38;8.10;99.90
29363;DHT22;16349;53.672;10.014;2023-02-03T08:56:05;8.00;99.90
29363;DHT22;16349;53.672;10.014;2023-02-03T08:58:32;8.00;99.90
29363;DHT22;16349;53.672;10.014;2023-02-03T09:01:05;8.00;99.90
29363;DHT22;16349;53.672;10.014;2023-02-03T09:03:33;8.00;99.90
29363;DHT22;16349;53.672;10.014;2023-02-03T09:06:00;8.00;99.90
29363;DHT22;16349;53.672;10.014;2023-02-03T09:08:28;8.00;99.90
29363;DHT22;16349;53.672;10.014;2023-02-03T09:10:55;7.90;99.90
29363;DHT22;16349;53.672;10.014;2023-02-03T09:13:21;7.90;99.90
29363;DHT22;16349;53.672;10.014;2023-02-03T09:15:48;7.90;99.90
29363;DHT22;16349;53.672;10.014;2023-02-03T09:18:14;7.90;99.90
29363;DHT22;16349;53.672;10.014;2023-02-03T09:20:42;7.90;99.90
29363;DHT22;16349;53.672;10.014;2023-02-03T09:23:08;7.90;99.90
29363;DHT22;16349;53.672;10.014;2023-02-03T09:25:37;7.90;99.90
29363;DHT22;16349;53.672;10.014;2023-02-03T09:28:03;7.90;99.90
29363;DHT22;16349;53.672;10.014;2023-02-03T09:30:30;7.90;99.90
29363;DHT22;16349;53.672;10.014;2023-02-03T09:32:57;7.90;99.90
29363;DHT22;16349;53.672;10.014;2023-02-03T09:35:24;7.90;99.90
29363;DHT22;16349;53.672;10.014;2023-02-03T09:37:52;8.00;99.90
29363;DHT22;16349;53.672;10.014;2023-02-03T09:40:22;8.00;99.90
29363;DHT22;16349;53.672;10.014;2023-02-03T09:43:04;8.00;99.90
29363;DHT22;16349;53.672;10.014;2023-02-03T09:45:36;8.00;99.90
29363;DHT22;16349;53.672;10.014;2023-02-03T09:48:05;8.10;99.90
29363;DHT22;16349;53.672;10.014;2023-02-03T09:50:36;8.10;99.90
29363;DHT22;16349;53.672;10.014;2023-02-03T09:53:11;8.10;99.90
29363;DHT22;16349;53.672;10.014;2023-02-03T09:55:41;8.10;99.90
29363;DHT22;16349;53.672;10.014;2023-02-03T09:58:12;8.10;99.90
29363;DHT22;16349;53.672;10.014;2023-02-03T10:00:42;8.10;99.90
29363;DHT22;16349;53.672;10.014;2023-02-03T10:03:17;8.10;99.90
29363;DHT22;16349;53.672;10.014;2023-02-03T10:06:03;8.10;99.90
29363;DHT22;16349;53.672;10.014;2023-02-03T10:11:53;8.20;99.90
29363;DHT22;16349;53.672;10.014;2023-02-03T10:14:34;8.20;99.90
29363;DHT22;16349;53.672;10.014;2023-02-03T10:17:18;8.20;99.90
29363;DHT22;16349;53.672;10.014;2023-02-03T10:19:49;8.30;99.90
29363;DHT22;16349;53.672;10.014;2023-02-03T10:22:20;8.30;99.90
29363;DHT22;16349;53.672;10.014;2023-02-03T10:24:52;8.20;99.90
29363;DHT22;16349;53.672;10.014;2023-02-03T10:27:21;8.20;99.90
29363;DHT22;16349;53.672;10.014;2023-02-03T10:29:55;8.20;99.90
29363;DHT22;16349;53.672;10.014;2023-02-03T10:32:24;8.20;99.90
29363;DHT22;16349;53.672;10.014;2023-02-03T10:34:52;8.30;99.90
29363;DHT22;16349;53.672;10.014;2023-02-03T10:37:25;8.30;99.90
29363;DHT22;16349;53.672;10.014;2023-02-03T10:39:53;8.30;99.90
29363;DHT22;16349;53.672;10.014;2023-02-03T10:42:43;8.30;99.90
29363;DHT22;16349;53.672;10.014;2023-02-03T10:45:35;8.20;99.90
29363;DHT22;16349;53.672;10.014;2023-02-03T10:48:03;8.20;99.90
29363;DHT22;16349;53.672;10.014;2023-02-03T10:50:51;8.20;99.90
29363;DHT22;16349;53.672;10.014;2023-02-03T10:53:23;8.20;99.90
29363;DHT22;16349;53.672;10.014;2023-02-03T10:56:00;8.20;99.90
29363;DHT22;16349;53.672;10.014;2023-02-03T10:58:28;8.20;99.90
29363;DHT22;16349;53.672;10.014;2023-02-03T11:01:04;8.20;99.90
29363;DHT22;16349;53.672;10.014;2023-02-03T11:03:31;8.30;99.90
29363;DHT22;16349;53.672;10.014;2023-02-03T11:06:09;8.30;99.90
29363;DHT22;16349;53.672;10.014;2023-02-03T11:08:38;8.30;99.90
29363;DHT22;16349;53.672;10.014;2023-02-03T11:11:27;8.30;99.90
29363;DHT22;16349;53.672;10.014;2023-02-03T11:14:10;8.30;99.90
29363;DHT22;16349;53.672;10.014;2023-02-03T11:16:39;8.30;99.90
29363;DHT22;16349;53.672;10.014;2023-02-03T11:19:14;8.30;99.90
29363;DHT22;16349;53.672;10.014;2023-02-03T11:21:43;8.40;99.90
29363;DHT22;16349;53.672;10.014;2023-02-03T11:24:17;8.40;99.90
29363;DHT22;16349;53.672;10.014;2023-02-03T11:26:47;8.40;99.90
29363;DHT22;16349;53.672;10.014;2023-02-03T11:29:34;8.40;99.90
29363;DHT22;16349;53.672;10.014;2023-02-03T11:32:13;8.50;99.90
29363;DHT22;16349;53.672;10.014;2023-02-03T11:34:46;8.50;99.90
29363;DHT22;16349;53.672;10.014;2023-02-03T11:37:26;8.50;99.90
29363;DHT22;16349;53.672;10.014;2023-02-03T11:40:13;8.50;99.90
29363;DHT22;16349;53.672;10.014;2023-02-03T11:42:58;8.50;99.90
29363;DHT22;16349;53.672;10.014;2023-02-03T11:45:27;8.50;99.90
29363;DHT22;16349;53.672;10.014;2023-02-03T11:47:58;8.50;99.90
29363;DHT22;16349;53.672;10.014;2023-02-03T11:50:29;8.50;99.90
29363;DHT22;16349;53.672;10.014;2023-02-03T11:53:42;8.50;99.90
29363;DHT22;16349;53.672;10.014;2023-02-03T11:56:23;8.50;99.90
29363;DHT22;16349;53.672;10.014;2023-02-03T11:59:10;8.50;99.90
29363;DHT22;16349;53.672;10.014;2023-02-03T12:01:52;8.50;99.90
29363;DHT22;16349;53.672;10.014;2023-02-03T12:04:35;8.50;99.90
29363;DHT22;16349;53.672;10.014;2023-02-03T12:07:28;8.50;99.90
29363;DHT22;16349;53.672;10.014;2023-02-03T12:10:00;8.50;99.90
29363;DHT22;16349;53.672;10.014;2023-02-03T12:12:46;8.50;99.90
29363;DHT22;16349;53.672;10.014;2023-02-03T12:18:21;8.60;99.90
29363;DHT22;16349;53.672;10.014;2023-02-03T12:21:05;8.60;99.90
29363;DHT22;16349;53.672;10.014;2023-02-03T12:23:42;8.70;99.90
29363;DHT22;16349;53.672;10.014;2023-02-03T12:26:20;8.70;99.90
29363;DHT22;16349;53.672;10.014;2023-02-03T12:28:54;8.70;99.90
29363;DHT22;16349;53.672;10.014;2023-02-03T12:31:29;8.70;99.90
29363;DHT22;16349;53.672;10.014;2023-02-03T12:34:11;8.70;99.90
29363;DHT22;16349;53.672;10.014;2023-02-03T12:36:44;8.60;99.90
29363;DHT22;16349;53.672;10.014;2023-02-03T12:39:18;8.60;99.90
29363;DHT22;16349;53.672;10.014;2023-02-03T12:41:50;8.60;99.90
29363;DHT22;16349;53.672;10.014;2023-02-03T12:44:24;8.50;99.90
29363;DHT22;16349;53.672;10.014;2023-02-03T12:46:56;8.50;99.90
29363;DHT22;16349;53.672;10.014;2023-02-03T12:49:32;8.50;99.90
29363;DHT22;16349;53.672;10.014;2023-02-03T12:52:08;8.50;99.90
29363;DHT22;16349;53.672;10.014;2023-02-03T12:54:42;8.50;99.90
29363;DHT22;16349;53.672;10.014;2023-02-03T12:57:34;8.40;99.90
29363;DHT22;16349;53.672;10.014;2023-02-03T13:00:12;8.40;99.90
29363;DHT22;16349;53.672;10.014;2023-02-03T13:02:49;8.40;99.90
29363;DHT22;16349;53.672;10.014;2023-02-03T13:05:21;8.40;99.90
29363;DHT22;16349;53.672;10.014;2023-02-03T13:07:58;8.40;99.90
29363;DHT22;16349;53.672;10.014;2023-02-03T13:10:30;8.40;99.90
29363;DHT22;16349;53.672;10.014;2023-02-03T13:12:58;8.30;99.90
29363;DHT22;16349;53.672;10.014;2023-02-03T13:15:29;8.30;99.90
29363;DHT22;16349;53.672;10.014;2023-02-03T13:18:00;8.30;99.90
29363;DHT22;16349;53.672;10.014;2023-02-03T13:20:30;8.30;99.90
29363;DHT22;16349;53.672;10.014;2023-02-03T13:23:03;8.30;99.90
29363;DHT22;16349;53.672;10.014;2023-02-03T13:25:41;8.30;99.90
29363;DHT22;16349;53.672;10.014;2023-02-03T13:28:16;8.30;99.90
29363;DHT22;16349;53.672;10.014;2023-02-03T13:30:54;8.30;99.90
29363;DHT22;16349;53.672;10.014;2023-02-03T13:33:56;8.20;99.90
29363;DHT22;16349;53.672;10.014;2023-02-03T13:37:03;8.20;99.90
29363;DHT22;16349;53.672;10.014;2023-02-03T13:39:45;8.30;99.90
29363;DHT22;16349;53.672;10.014;2023-02-03T13:42:20;8.20;99.90
29363;DHT22;16349;53.672;10.014;2023-02-03T13:44:53;8.20;99.90
29363;DHT22;16349;53.672;10.014;2023-02-03T13:47:23;8.20;99.90
29363;DHT22;16349;53.672;10.014;2023-02-03T13:49:54;8.20;99.90
29363;DHT22;16349;53.672;10.014;2023-02-03T13:52:34;8.20;99.90
29363;DHT22;16349;53.672;10.014;2023-02-03T13:55:05;8.20;99.90
29363;DHT22;16349;53.672;10.014;2023-02-03T13:57:36;8.20;99.90
29363;DHT22;16349;53.672;10.014;2023-02-03T14:00:23;8.20;99.90
29363;DHT22;16349;53.672;10.014;2023-02-03T14:03:40;8.20;99.90
29363;DHT22;16349;53.672;10.014;2023-02-03T14:09:53;8.10;99.90
29363;DHT22;16349;53.672;10.014;2023-02-03T14:12:35;8.10;99.90
29363;DHT22;16349;53.672;10.014;2023-02-03T14:15:19;8.00;99.90
29363;DHT22;16349;53.672;10.014;2023-02-03T14:23:57;8.00;99.90
29363;DHT22;16349;53.672;10.014;2023-02-03T14:26:31;8.00;99.90
29363;DHT22;16349;53.672;10.014;2023-02-03T14:28:59;8.00;99.90
29363;DHT22;16349;53.672;10.014;2023-02-03T14:31:53;8.00;99.90
29363;DHT22;16349;53.672;10.014;2023-02-03T14:34:32;7.90;99.90
29363;DHT22;16349;53.672;10.014;2023-02-03T14:37:10;7.90;99.90
29363;DHT22;16349;53.672;10.014;2023-02-03T14:40:15;7.80;99.90
29363;DHT22;16349;53.672;10.014;2023-02-03T14:46:00;7.80;99.90
29363;DHT22;16349;53.672;10.014;2023-02-03T14:48:50;7.80;99.90
29363;DHT22;16349;53.672;10.014;2023-02-03T14:51:34;7.80;99.90
29363;DHT22;16349;53.672;10.014;2023-02-03T14:54:19;7.70;99.90
29363;DHT22;16349;53.672;10.014;2023-02-03T14:57:05;7.70;99.90
29363;DHT22;16349;53.672;10.014;2023-02-03T14:59:46;7.70;99.90
29363;DHT22;16349;53.672;10.014;2023-02-03T15:02:16;7.70;99.90
29363;DHT22;16349;53.672;10.014;2023-02-03T15:04:45;7.70;99.90
29363;DHT22;16349;53.672;10.014;2023-02-03T15:07:43;7.70;99.90
29363;DHT22;16349;53.672;10.014;2023-02-03T15:10:13;7.70;99.90
29363;DHT22;16349;53.672;10.014;2023-02-03T15:12:46;7.70;99.90
29363;DHT22;16349;53.672;10.014;2023-02-03T15:15:21;7.70;99.90
29363;DHT22;16349;53.672;10.014;2023-02-03T15:17:50;7.70;99.90
29363;DHT22;16349;53.672;10.014;2023-02-03T15:20:29;7.70;99.90
29363;DHT22;16349;53.672;10.014;2023-02-03T15:22:56;7.70;99.90
29363;DHT22;16349;53.672;10.014;2023-02-03T15:25:24;7.70;99.90
29363;DHT22;16349;53.672;10.014;2023-02-03T15:28:19;7.70;99.90
29363;DHT22;16349;53.672;10.014;2023-02-03T15:30:48;7.60;99.90
29363;DHT22;16349;53.672;10.014;2023-02-03T15:33:17;7.60;99.90
29363;DHT22;16349;53.672;10.014;2023-02-03T15:35:49;7.60;99.90
29363;DHT22;16349;53.672;10.014;2023-02-03T15:38:21;7.60;99.90
29363;DHT22;16349;53.672;10.014;2023-02-03T15:40:53;7.60;99.90
29363;DHT22;16349;53.672;10.014;2023-02-03T15:43:27;7.60;99.90
29363;DHT22;16349;53.672;10.014;2023-02-03T15:46:02;7.60;99.90
29363;DHT22;16349;53.672;10.014;2023-02-03T15:48:32;7.50;99.90
29363;DHT22;16349;53.672;10.014;2023-02-03T15:51:22;7.50;99.90
29363;DHT22;16349;53.672;10.014;2023-02-03T15:53:54;7.50;99.90
29363;DHT22;16349;53.672;10.014;2023-02-03T15:56:29;7.50;99.90
29363;DHT22;16349;53.672;10.014;2023-02-03T15:59:02;7.50;99.90
29363;DHT22;16349;53.672;10.014;2023-02-03T16:01:29;7.50;99.90
29363;DHT22;16349;53.672;10.014;2023-02-03T16:03:57;7.50;99.90
29363;DHT22;16349;53.672;10.014;2023-02-03T16:06:27;7.50;99.90
29363;DHT22;16349;53.672;10.014;2023-02-03T16:08:56;7.50;99.90
29363;DHT22;16349;53.672;10.014;2023-02-03T16:11:27;7.50;99.90
29363;DHT22;16349;53.672;10.014;2023-02-03T16:13:56;7.40;99.90
29363;DHT22;16349;53.672;10.014;2023-02-03T16:16:28;7.40;99.90
29363;DHT22;16349;53.672;10.014;2023-02-03T16:18:56;7.40;99.90
29363;DHT22;16349;53.672;10.014;2023-02-03T16:21:52;7.40;99.90
29363;DHT22;16349;53.672;10.014;2023-02-03T16:24:43;7.40;99.90